createdAt,value
2019-02-12T00:00:42.562Z,2.60
2019-02-12T00:01:42.551Z,2.60
2019-02-12T00:02:42.538Z,2.30
2019-02-12T00:03:42.530Z,2.80
2019-02-12T00:04:42.518Z,3.00
2019-02-12T00:05:42.506Z,2.80
2019-02-12T00:06:42.499Z,2.40
2019-02-12T00:07:42.484Z,2.70
2019-02-12T00:08:42.471Z,2.50
2019-02-12T00:09:42.461Z,2.70
2019-02-12T00:10:42.450Z,2.70
2019-02-12T00:11:42.443Z,2.30
2019-02-12T00:12:42.429Z,2.70
2019-02-12T00:13:42.418Z,2.80
2019-02-12T00:14:42.407Z,2.50
2019-02-12T00:15:42.394Z,2.50
2019-02-12T00:16:42.385Z,2.60
2019-02-12T00:17:42.373Z,2.80
2019-02-12T00:18:42.363Z,2.90
2019-02-12T00:19:42.351Z,2.80
2019-02-12T00:20:42.341Z,2.60
2019-02-12T00:21:42.327Z,2.50
2019-02-12T00:22:42.325Z,2.50
2019-02-12T00:23:42.306Z,2.60
2019-02-12T00:24:42.305Z,2.90
2019-02-12T00:25:42.286Z,2.40
2019-02-12T00:26:42.273Z,2.90
2019-02-12T00:27:43.627Z,2.50
2019-02-12T00:28:42.251Z,3.00
2019-02-12T00:29:42.242Z,3.20
2019-02-12T00:30:42.231Z,2.50
2019-02-12T00:31:42.218Z,3.30
2019-02-12T00:32:42.267Z,3.10
2019-02-12T00:33:42.246Z,2.60
2019-02-12T00:34:42.184Z,2.90
2019-02-12T00:35:42.174Z,2.50
2019-02-12T00:36:42.164Z,2.80
2019-02-12T00:37:42.201Z,3.00
2019-02-12T00:38:42.140Z,3.10
2019-02-12T00:39:42.134Z,2.80
2019-02-12T00:40:42.120Z,3.00
2019-02-12T00:41:42.108Z,2.60
2019-02-12T00:42:42.096Z,2.90
2019-02-12T00:43:42.087Z,3.40
2019-02-12T00:44:42.073Z,2.90
2019-02-12T00:45:42.063Z,2.80
2019-02-12T00:46:42.051Z,2.80
2019-02-12T00:47:42.039Z,2.20
2019-02-12T00:48:42.029Z,2.50
2019-02-12T00:49:42.020Z,2.70
2019-02-12T00:50:42.006Z,2.60
2019-02-12T00:51:41.996Z,2.60
2019-02-12T00:52:41.986Z,2.80
2019-02-12T00:53:41.975Z,2.40
2019-02-12T00:54:41.969Z,1.90
2019-02-12T00:55:41.952Z,2.40
2019-02-12T00:56:41.941Z,2.50
2019-02-12T00:57:41.929Z,2.20
2019-02-12T00:58:41.922Z,2.20
2019-02-12T00:59:41.909Z,2.70
2019-02-12T01:00:41.908Z,2.50
2019-02-12T01:01:41.884Z,2.50
2019-02-12T01:02:41.875Z,2.80
2019-02-12T01:03:41.866Z,2.50
2019-02-12T01:04:41.852Z,2.80
2019-02-12T01:05:41.845Z,2.10
2019-02-12T01:06:41.833Z,2.70
2019-02-12T01:07:41.819Z,2.30
2019-02-12T01:08:41.812Z,2.80
2019-02-12T01:09:41.797Z,2.40
2019-02-12T01:10:41.788Z,2.30
2019-02-12T01:11:41.774Z,2.10
2019-02-12T01:12:41.768Z,2.50
2019-02-12T01:13:41.752Z,2.50
2019-02-12T01:14:41.742Z,2.70
2019-02-12T01:15:41.730Z,2.50
2019-02-12T01:16:41.744Z,2.60
2019-02-12T01:17:41.715Z,2.50
2019-02-12T01:18:41.697Z,2.60
2019-02-12T01:19:41.686Z,2.40
2019-02-12T01:20:41.675Z,2.80
2019-02-12T01:21:41.665Z,2.20
2019-02-12T01:22:41.656Z,2.60
2019-02-12T01:23:41.643Z,2.40
2019-02-12T01:24:41.630Z,2.40
2019-02-12T01:25:41.620Z,2.50
2019-02-12T01:26:41.609Z,2.30
2019-02-12T01:27:41.597Z,2.40
2019-02-12T01:28:41.609Z,2.40
2019-02-12T01:29:41.575Z,2.70
2019-02-12T01:30:41.567Z,2.50
2019-02-12T01:31:41.557Z,2.50
2019-02-12T01:32:41.545Z,2.80
2019-02-12T01:33:41.533Z,2.90
2019-02-12T01:34:41.522Z,2.40
2019-02-12T01:35:41.509Z,2.90
2019-02-12T01:36:41.502Z,2.20
2019-02-12T01:37:41.489Z,2.60
2019-02-12T01:38:41.476Z,2.30
2019-02-12T01:39:41.473Z,2.30
2019-02-12T01:40:41.457Z,2.50
2019-02-12T01:41:41.442Z,2.40
2019-02-12T01:42:41.433Z,2.10
2019-02-12T01:43:41.421Z,3.00
2019-02-12T01:44:41.410Z,1.80
2019-02-12T01:45:41.402Z,2.30
2019-02-12T01:46:41.387Z,2.80
2019-02-12T01:47:41.377Z,2.40
2019-02-12T01:48:41.366Z,2.50
2019-02-12T01:49:41.357Z,2.10
2019-02-12T01:50:41.344Z,2.20
2019-02-12T01:51:41.342Z,1.90
2019-02-12T01:52:41.324Z,2.50
2019-02-12T01:53:41.310Z,1.80
2019-02-12T01:54:41.298Z,2.10
2019-02-12T01:55:41.289Z,2.40
2019-02-12T01:56:41.277Z,2.80
2019-02-12T01:57:41.268Z,2.10
2019-02-12T01:58:41.255Z,2.00
2019-02-12T01:59:41.242Z,1.80
2019-02-12T02:00:41.232Z,2.10
2019-02-12T02:01:41.225Z,2.30
2019-02-12T02:02:41.211Z,2.40
2019-02-12T02:03:41.200Z,2.40
2019-02-12T02:04:41.190Z,2.20
2019-02-12T02:05:41.181Z,2.40
2019-02-12T02:06:41.165Z,2.10
2019-02-12T02:07:41.156Z,2.60
2019-02-12T02:08:41.148Z,1.70
2019-02-12T02:09:41.138Z,2.30
2019-02-12T02:10:41.125Z,1.70
2019-02-12T02:11:41.110Z,2.00
2019-02-12T02:12:41.099Z,2.40
2019-02-12T02:13:41.087Z,2.10
2019-02-12T02:14:41.091Z,2.00
2019-02-12T02:15:41.070Z,2.40
2019-02-12T02:16:41.060Z,2.10
2019-02-12T02:17:41.044Z,2.20
2019-02-12T02:18:41.032Z,2.00
2019-02-12T02:19:41.023Z,2.50
2019-02-12T02:20:41.019Z,2.30
2019-02-12T02:21:44.034Z,1.90
2019-02-12T02:22:41.001Z,1.40
2019-02-12T02:23:40.981Z,2.50
2019-02-12T02:24:40.966Z,2.00
2019-02-12T02:25:40.968Z,2.20
2019-02-12T02:26:40.943Z,2.00
2019-02-12T02:27:40.933Z,2.20
2019-02-12T02:28:40.921Z,2.20
2019-02-12T02:29:40.917Z,2.20
2019-02-12T02:30:40.900Z,2.00
2019-02-12T02:31:40.892Z,1.90
2019-02-12T02:32:40.879Z,1.60
2019-02-12T02:33:40.869Z,2.30
2019-02-12T02:34:40.858Z,1.70
2019-02-12T02:35:40.845Z,1.80
2019-02-12T02:36:40.838Z,1.90
2019-02-12T02:37:40.826Z,2.30
2019-02-12T02:38:40.810Z,2.40
2019-02-12T02:39:40.810Z,2.00
2019-02-12T02:40:40.813Z,2.00
2019-02-12T02:41:40.787Z,1.90
2019-02-12T02:42:40.769Z,1.80
2019-02-12T02:43:40.757Z,1.90
2019-02-12T02:44:40.753Z,1.90
2019-02-12T02:45:40.743Z,1.70
2019-02-12T02:46:40.726Z,1.80
2019-02-12T02:47:40.729Z,2.10
2019-02-12T02:48:40.703Z,1.80
2019-02-12T02:49:40.694Z,2.10
2019-02-12T02:50:40.683Z,2.00
2019-02-12T02:51:40.670Z,2.00
2019-02-12T02:52:40.660Z,2.00
2019-02-12T02:53:40.646Z,2.30
2019-02-12T02:54:40.633Z,2.10
2019-02-12T02:55:40.628Z,2.00
2019-02-12T02:56:40.611Z,1.70
2019-02-12T02:57:40.602Z,1.90
2019-02-12T02:58:40.590Z,2.00
2019-02-12T02:59:40.577Z,2.20
2019-02-12T03:00:40.570Z,2.20
2019-02-12T03:01:40.590Z,1.80
2019-02-12T03:02:40.545Z,2.50
2019-02-12T03:03:40.535Z,2.10
2019-02-12T03:04:40.522Z,1.80
2019-02-12T03:05:40.514Z,1.90
2019-02-12T03:06:40.502Z,2.10
2019-02-12T03:07:40.490Z,2.40
2019-02-12T03:08:40.480Z,2.00
2019-02-12T03:09:40.473Z,1.80
2019-02-12T03:10:40.457Z,2.00
2019-02-12T03:11:40.447Z,2.20
2019-02-12T03:12:40.439Z,2.10
2019-02-12T03:13:40.422Z,2.00
2019-02-12T03:14:40.413Z,2.10
2019-02-12T03:15:40.406Z,2.20
2019-02-12T03:16:40.392Z,2.40
2019-02-12T03:17:40.379Z,2.00
2019-02-12T03:18:40.369Z,2.30
2019-02-12T03:19:40.361Z,2.20
2019-02-12T03:20:40.347Z,2.50
2019-02-12T03:21:40.346Z,2.20
2019-02-12T03:22:40.323Z,2.20
2019-02-12T03:23:40.314Z,2.20
2019-02-12T03:24:40.303Z,2.50
2019-02-12T03:25:40.291Z,2.20
2019-02-12T03:26:40.279Z,2.50
2019-02-12T03:27:40.272Z,2.20
2019-02-12T03:28:40.259Z,2.50
2019-02-12T03:29:40.246Z,2.00
2019-02-12T03:30:40.240Z,1.80
2019-02-12T03:31:40.227Z,2.50
2019-02-12T03:32:40.217Z,2.40
2019-02-12T03:33:40.202Z,1.70
2019-02-12T03:34:40.195Z,2.00
2019-02-12T03:35:40.180Z,2.30
2019-02-12T03:36:40.168Z,2.10
2019-02-12T03:37:40.160Z,2.30
2019-02-12T03:38:40.152Z,2.20
2019-02-12T03:39:40.137Z,2.10
2019-02-12T03:40:40.124Z,2.30
2019-02-12T03:41:40.167Z,2.00
2019-02-12T03:42:40.103Z,2.20
2019-02-12T03:43:40.095Z,2.10
2019-02-12T03:44:40.083Z,1.80
2019-02-12T03:45:40.074Z,2.10
2019-02-12T03:46:40.064Z,2.20
2019-02-12T03:47:40.047Z,1.80
2019-02-12T03:48:40.037Z,2.30
2019-02-12T03:49:40.027Z,2.20
2019-02-12T03:50:40.015Z,1.90
2019-02-12T03:51:40.003Z,1.80
2019-02-12T03:52:39.995Z,2.10
2019-02-12T03:53:39.980Z,2.20
2019-02-12T03:54:39.968Z,2.50
2019-02-12T03:55:39.959Z,2.20
2019-02-12T03:56:39.947Z,1.90
2019-02-12T03:57:39.938Z,2.20
2019-02-12T03:58:39.933Z,1.90
2019-02-12T03:59:39.917Z,1.90
2019-02-12T04:00:39.905Z,2.20
2019-02-12T04:01:39.900Z,2.10
2019-02-12T04:02:39.886Z,2.30
2019-02-12T04:03:39.870Z,2.30
2019-02-12T04:04:39.864Z,2.50
2019-02-12T04:05:39.857Z,2.10
2019-02-12T04:06:39.839Z,2.20
2019-02-12T04:07:39.826Z,1.60
2019-02-12T04:08:39.818Z,2.20
2019-02-12T04:09:39.804Z,2.20
2019-02-12T04:10:39.792Z,2.10
2019-02-12T04:11:39.785Z,2.10
2019-02-12T04:12:39.777Z,2.20
2019-02-12T04:13:39.769Z,2.10
2019-02-12T04:14:39.747Z,2.00
2019-02-12T04:15:39.738Z,1.90
2019-02-12T04:16:39.725Z,2.10
2019-02-12T04:17:39.714Z,2.40
2019-02-12T04:18:39.706Z,2.40
2019-02-12T04:19:39.693Z,2.20
2019-02-12T04:20:39.683Z,2.30
2019-02-12T04:21:39.670Z,2.30
2019-02-12T04:22:39.665Z,2.30
2019-02-12T04:23:39.649Z,2.30
2019-02-12T04:24:39.637Z,2.10
2019-02-12T04:25:39.631Z,2.40
2019-02-12T04:26:39.614Z,1.80
2019-02-12T04:27:39.606Z,2.10
2019-02-12T04:28:39.592Z,2.10
2019-02-12T04:29:39.594Z,1.80
2019-02-12T04:30:39.574Z,2.40
2019-02-12T04:31:39.560Z,2.10
2019-02-12T04:32:39.547Z,2.30
2019-02-12T04:33:39.537Z,2.10
2019-02-12T04:34:39.533Z,2.00
2019-02-12T04:35:39.523Z,1.80
2019-02-12T04:36:39.504Z,1.90
2019-02-12T04:37:39.494Z,2.40
2019-02-12T04:38:39.484Z,2.40
2019-02-12T04:39:39.470Z,2.10
2019-02-12T04:40:39.457Z,2.40
2019-02-12T04:41:39.446Z,2.30
2019-02-12T04:42:39.438Z,2.10
2019-02-12T04:43:39.427Z,2.20
2019-02-12T04:44:39.416Z,2.70
2019-02-12T04:45:39.402Z,2.20
2019-02-12T04:46:39.393Z,1.90
2019-02-12T04:47:39.379Z,2.20
2019-02-12T04:48:39.374Z,2.00
2019-02-12T04:49:39.360Z,2.00
2019-02-12T04:50:39.352Z,2.30
2019-02-12T04:51:39.336Z,2.10
2019-02-12T04:52:39.325Z,2.50
2019-02-12T04:53:39.312Z,1.60
2019-02-12T04:54:39.303Z,2.30
2019-02-12T04:55:39.293Z,2.20
2019-02-12T04:56:39.282Z,1.90
2019-02-12T04:57:39.283Z,2.10
2019-02-12T04:58:39.260Z,2.50
2019-02-12T04:59:39.245Z,2.00
2019-02-12T05:00:39.239Z,1.80
2019-02-12T05:01:39.224Z,1.80
2019-02-12T05:02:39.215Z,2.00
2019-02-12T05:03:39.210Z,1.90
2019-02-12T05:04:39.190Z,1.80
2019-02-12T05:05:39.183Z,2.40
2019-02-12T05:06:39.167Z,2.20
2019-02-12T05:07:39.178Z,2.10
2019-02-12T05:08:39.146Z,2.00
2019-02-12T05:09:39.135Z,2.20
2019-02-12T05:10:39.123Z,1.90
2019-02-12T05:11:39.113Z,2.10
2019-02-12T05:12:39.102Z,1.90
2019-02-12T05:13:39.108Z,2.00
2019-02-12T05:14:39.081Z,2.10
2019-02-12T05:15:39.069Z,1.50
2019-02-12T05:16:39.057Z,1.90
2019-02-12T05:17:39.045Z,2.20
2019-02-12T05:18:39.034Z,2.20
2019-02-12T05:19:39.024Z,2.20
2019-02-12T05:20:39.024Z,2.20
2019-02-12T05:21:39.008Z,2.00
2019-02-12T05:22:43.524Z,2.00
2019-02-12T05:23:38.981Z,1.90
2019-02-12T05:24:38.973Z,1.70
2019-02-12T05:25:38.957Z,1.90
2019-02-12T05:26:38.945Z,2.00
2019-02-12T05:27:38.933Z,2.20
2019-02-12T05:28:38.929Z,1.80
2019-02-12T05:29:38.913Z,2.40
2019-02-12T05:30:38.902Z,1.70
2019-02-12T05:31:38.888Z,1.80
2019-02-12T05:32:38.880Z,1.90
2019-02-12T05:33:38.868Z,1.90
2019-02-12T05:34:38.856Z,2.00
2019-02-12T05:35:38.845Z,1.70
2019-02-12T05:36:38.833Z,1.80
2019-02-12T05:37:38.824Z,1.90
2019-02-12T05:38:38.812Z,2.10
2019-02-12T05:39:38.801Z,1.80
2019-02-12T05:40:38.793Z,1.90
2019-02-12T05:41:38.779Z,2.30
2019-02-12T05:42:38.770Z,2.00
2019-02-12T05:43:38.754Z,2.00
2019-02-12T05:44:38.750Z,1.90
2019-02-12T05:45:38.738Z,2.00
2019-02-12T05:46:38.721Z,1.60
2019-02-12T05:47:38.711Z,1.80
2019-02-12T05:48:38.699Z,1.90
2019-02-12T05:49:38.693Z,1.50
2019-02-12T05:50:38.677Z,1.50
2019-02-12T05:51:38.667Z,2.30
2019-02-12T05:52:38.665Z,1.70
2019-02-12T05:53:38.669Z,1.40
2019-02-12T05:54:38.636Z,1.80
2019-02-12T05:55:38.624Z,1.90
2019-02-12T05:56:38.611Z,1.80
2019-02-12T05:57:38.609Z,1.80
2019-02-12T05:58:38.587Z,1.70
2019-02-12T05:59:38.577Z,1.80
2019-02-12T06:00:38.568Z,1.80
2019-02-12T06:01:38.554Z,1.80
2019-02-12T06:02:38.548Z,2.10
2019-02-12T06:03:38.533Z,2.30
2019-02-12T06:04:38.531Z,2.00
2019-02-12T06:05:38.511Z,1.80
2019-02-12T06:06:38.506Z,2.30
2019-02-12T06:07:38.487Z,1.90
2019-02-12T06:08:38.487Z,1.80
2019-02-12T06:09:38.475Z,1.80
2019-02-12T06:10:38.456Z,2.40
2019-02-12T06:11:38.449Z,1.90
2019-02-12T06:12:38.436Z,2.20
2019-02-12T06:13:38.425Z,1.70
2019-02-12T06:14:38.420Z,1.80
2019-02-12T06:15:38.420Z,2.50
2019-02-12T06:16:38.389Z,2.50
2019-02-12T06:17:38.377Z,1.70
2019-02-12T06:18:38.367Z,2.10
2019-02-12T06:19:38.365Z,1.80
2019-02-12T06:20:38.346Z,2.00
2019-02-12T06:21:38.333Z,1.70
2019-02-12T06:22:38.321Z,1.80
2019-02-12T06:23:38.314Z,1.90
2019-02-12T06:24:38.301Z,2.20
2019-02-12T06:25:38.290Z,2.10
2019-02-12T06:26:38.279Z,2.10
2019-02-12T06:27:38.283Z,1.90
2019-02-12T06:28:38.274Z,2.70
2019-02-12T06:29:38.248Z,1.90
2019-02-12T06:30:38.234Z,2.00
2019-02-12T06:31:38.223Z,1.90
2019-02-12T06:32:38.211Z,2.10
2019-02-12T06:33:38.201Z,2.30
2019-02-12T06:34:38.190Z,1.80
2019-02-12T06:35:38.179Z,2.10
2019-02-12T06:36:38.170Z,2.30
2019-02-12T06:37:38.156Z,2.10
2019-02-12T06:38:38.147Z,2.00
2019-02-12T06:39:38.133Z,2.50
2019-02-12T06:40:38.126Z,1.80
2019-02-12T06:41:38.115Z,1.90
2019-02-12T06:42:38.100Z,2.00
2019-02-12T06:43:38.093Z,2.00
2019-02-12T06:44:38.080Z,2.00
2019-02-12T06:45:38.072Z,2.00
2019-02-12T06:46:38.056Z,2.10
2019-02-12T06:47:38.047Z,1.60
2019-02-12T06:48:38.034Z,1.90
2019-02-12T06:49:38.024Z,1.90
2019-02-12T06:50:38.013Z,2.10
2019-02-12T06:51:38.000Z,1.80
2019-02-12T06:52:37.993Z,2.60
2019-02-12T06:53:37.979Z,1.90
2019-02-12T06:54:37.969Z,2.30
2019-02-12T06:55:37.958Z,2.00
2019-02-12T06:56:37.950Z,1.90
2019-02-12T06:57:37.935Z,2.00
2019-02-12T06:58:37.923Z,1.80
2019-02-12T06:59:37.913Z,2.10
2019-02-12T07:00:37.901Z,2.10
2019-02-12T07:01:37.895Z,1.80
2019-02-12T07:02:37.880Z,2.10
2019-02-12T07:03:37.869Z,2.10
2019-02-12T07:04:37.857Z,2.30
2019-02-12T07:05:37.846Z,1.90
2019-02-12T07:06:37.835Z,2.20
2019-02-12T07:07:37.825Z,2.20
2019-02-12T07:08:37.813Z,2.40
2019-02-12T07:09:37.802Z,2.20
2019-02-12T07:10:37.791Z,2.20
2019-02-12T07:11:37.782Z,2.60
2019-02-12T07:12:37.770Z,2.40
2019-02-12T07:13:37.758Z,2.30
2019-02-12T07:14:37.751Z,2.20
2019-02-12T07:15:37.736Z,1.90
2019-02-12T07:16:37.726Z,2.00
2019-02-12T07:17:37.715Z,2.30
2019-02-12T07:18:37.704Z,2.40
2019-02-12T07:19:37.723Z,2.00
2019-02-12T07:20:37.698Z,2.30
2019-02-12T07:21:37.687Z,2.20
2019-02-12T07:22:37.657Z,11.00
2019-02-12T07:23:37.682Z,8.60
2019-02-12T07:24:37.635Z,5.00
2019-02-12T07:25:37.625Z,3.90
2019-02-12T07:26:37.619Z,2.60
2019-02-12T07:27:37.603Z,2.30
2019-02-12T07:28:37.592Z,2.10
2019-02-12T07:29:37.579Z,2.40
2019-02-12T07:30:37.568Z,2.20
2019-02-12T07:31:37.561Z,2.00
2019-02-12T07:32:37.557Z,2.20
2019-02-12T07:33:37.539Z,2.20
2019-02-12T07:34:37.530Z,2.60
2019-02-12T07:35:37.513Z,2.60
2019-02-12T07:36:37.505Z,2.50
2019-02-12T07:37:37.493Z,2.60
2019-02-12T07:38:37.484Z,2.80
2019-02-12T07:39:37.468Z,2.60
2019-02-12T07:40:37.458Z,2.40
2019-02-12T07:41:37.446Z,2.40
2019-02-12T07:42:37.438Z,2.10
2019-02-12T07:43:37.425Z,2.30
2019-02-12T07:44:37.415Z,2.50
2019-02-12T07:45:37.404Z,2.40
2019-02-12T07:46:37.393Z,2.50
2019-02-12T07:47:37.381Z,2.40
2019-02-12T07:48:37.369Z,2.20
2019-02-12T07:49:37.375Z,2.40
2019-02-12T07:50:37.349Z,2.00
2019-02-12T07:51:37.336Z,1.90
2019-02-12T07:52:37.329Z,2.20
2019-02-12T07:53:37.315Z,2.70
2019-02-12T07:54:37.305Z,2.60
2019-02-12T07:55:37.294Z,2.50
2019-02-12T07:56:37.281Z,2.50
2019-02-12T07:57:37.269Z,2.20
2019-02-12T07:58:37.260Z,2.40
2019-02-12T07:59:37.252Z,2.50
2019-02-12T08:00:37.241Z,2.50
2019-02-12T08:01:37.225Z,2.20
2019-02-12T08:02:37.215Z,2.40
2019-02-12T08:03:37.203Z,2.70
2019-02-12T08:04:37.191Z,2.70
2019-02-12T08:05:37.182Z,2.60
2019-02-12T08:06:37.169Z,6.80
2019-02-12T08:07:37.160Z,6.30
2019-02-12T08:08:37.148Z,8.40
2019-02-12T08:09:37.141Z,6.00
2019-02-12T08:10:37.126Z,4.00
2019-02-12T08:11:37.118Z,2.80
2019-02-12T08:12:37.108Z,2.70
2019-02-12T08:13:37.096Z,2.50
2019-02-12T08:14:37.086Z,2.60
2019-02-12T08:15:37.074Z,2.40
2019-02-12T08:16:37.058Z,2.40
2019-02-12T08:17:37.049Z,2.60
2019-02-12T08:18:37.038Z,2.20
2019-02-12T08:19:37.029Z,2.40
2019-02-12T08:20:37.014Z,2.40
2019-02-12T08:21:37.003Z,2.20
2019-02-12T08:22:36.993Z,2.60
2019-02-12T08:23:41.287Z,2.60
2019-02-12T08:24:36.990Z,2.60
2019-02-12T08:25:36.959Z,1.80
2019-02-12T08:26:36.947Z,2.40
2019-02-12T08:27:36.937Z,2.30
2019-02-12T08:28:36.926Z,2.70
2019-02-12T08:29:36.919Z,2.60
2019-02-12T08:30:36.904Z,3.00
2019-02-12T08:31:36.893Z,2.80
2019-02-12T08:32:36.881Z,2.00
2019-02-12T08:33:36.873Z,2.50
2019-02-12T08:34:36.862Z,2.30
2019-02-12T08:35:36.850Z,2.50
2019-02-12T08:36:36.837Z,2.30
2019-02-12T08:37:36.827Z,2.30
2019-02-12T08:38:36.818Z,2.70
2019-02-12T08:39:36.805Z,2.40
2019-02-12T08:40:36.802Z,2.80
2019-02-12T08:41:36.781Z,3.00
2019-02-12T08:42:36.771Z,2.30
2019-02-12T08:43:36.765Z,2.90
2019-02-12T08:44:36.752Z,2.10
2019-02-12T08:45:36.738Z,2.60
2019-02-12T08:46:36.726Z,2.70
2019-02-12T08:47:36.716Z,2.80
2019-02-12T08:48:36.705Z,2.50
2019-02-12T08:49:36.696Z,2.80
2019-02-12T08:50:36.680Z,2.00
2019-02-12T08:51:36.672Z,2.30
2019-02-12T08:52:36.658Z,2.60
2019-02-12T08:53:36.647Z,2.50
2019-02-12T08:54:36.646Z,2.60
2019-02-12T08:55:36.937Z,2.40
2019-02-12T08:56:36.615Z,2.70
2019-02-12T08:57:36.602Z,2.50
2019-02-12T08:58:36.592Z,2.50
2019-02-12T08:59:36.582Z,2.10
2019-02-12T09:00:36.569Z,1.80
2019-02-12T09:01:36.558Z,2.50
2019-02-12T09:02:36.547Z,2.10
2019-02-12T09:03:36.542Z,2.40
2019-02-12T09:04:36.534Z,2.40
2019-02-12T09:05:36.515Z,2.20
2019-02-12T09:06:36.505Z,2.60
2019-02-12T09:07:36.494Z,2.20
2019-02-12T09:08:36.485Z,2.40
2019-02-12T09:09:36.470Z,2.50
2019-02-12T09:10:36.462Z,2.30
2019-02-12T09:11:36.449Z,2.10
2019-02-12T09:12:36.439Z,2.30
2019-02-12T09:13:36.424Z,2.40
2019-02-12T09:14:36.418Z,2.10
2019-02-12T09:15:36.403Z,2.00
2019-02-12T09:16:36.393Z,2.10
2019-02-12T09:17:36.388Z,2.20
2019-02-12T09:18:36.370Z,2.50
2019-02-12T09:19:36.363Z,2.60
2019-02-12T09:20:36.346Z,2.20
2019-02-12T09:21:36.340Z,2.00
2019-02-12T09:22:36.330Z,2.20
2019-02-12T09:23:36.314Z,2.40
2019-02-12T09:24:36.305Z,2.60
2019-02-12T09:25:36.293Z,2.10
2019-02-12T09:26:36.280Z,2.40
2019-02-12T09:27:36.269Z,2.40
2019-02-12T09:28:36.261Z,2.10
2019-02-12T09:29:36.248Z,2.50
2019-02-12T09:30:36.236Z,2.50
2019-02-12T09:31:36.225Z,2.40
2019-02-12T09:32:36.214Z,2.60
2019-02-12T09:33:36.206Z,2.00
2019-02-12T09:34:36.191Z,2.00
2019-02-12T09:35:36.188Z,2.10
2019-02-12T09:36:36.168Z,2.20
2019-02-12T09:37:36.159Z,2.20
2019-02-12T09:38:36.148Z,2.40
2019-02-12T09:39:36.136Z,2.30
2019-02-12T09:40:36.131Z,2.70
2019-02-12T09:41:36.132Z,2.70
2019-02-12T09:42:36.106Z,2.30
2019-02-12T09:43:36.093Z,2.20
2019-02-12T09:44:36.080Z,2.20
2019-02-12T09:45:36.072Z,2.40
2019-02-12T09:46:36.059Z,2.50
2019-02-12T09:47:36.048Z,2.20
2019-02-12T09:48:36.034Z,2.30
2019-02-12T09:49:36.026Z,2.30
2019-02-12T09:50:36.011Z,2.20
2019-02-12T09:51:36.001Z,2.30
2019-02-12T09:52:35.990Z,2.50
2019-02-12T09:53:35.980Z,2.50
2019-02-12T09:54:35.967Z,2.30
2019-02-12T09:55:35.958Z,2.10
2019-02-12T09:56:35.945Z,2.00
2019-02-12T09:57:35.933Z,2.00
2019-02-12T09:58:35.929Z,1.90
2019-02-12T09:59:35.910Z,2.40
2019-02-12T10:00:35.903Z,2.20
2019-02-12T10:01:35.894Z,2.60
2019-02-12T10:02:35.877Z,2.00
2019-02-12T10:03:35.874Z,2.10
2019-02-12T10:04:35.857Z,2.10
2019-02-12T10:05:35.847Z,2.50
2019-02-12T10:06:35.834Z,2.40
2019-02-12T10:07:35.912Z,2.00
2019-02-12T10:08:35.814Z,2.20
2019-02-12T10:09:35.802Z,1.90
2019-02-12T10:10:35.791Z,2.10
2019-02-12T10:11:35.796Z,2.00
2019-02-12T10:12:35.769Z,2.00
2019-02-12T10:13:35.754Z,2.40
2019-02-12T10:14:35.745Z,1.90
2019-02-12T10:15:35.732Z,1.80
2019-02-12T10:16:35.723Z,2.10
2019-02-12T10:17:35.713Z,2.20
2019-02-12T10:18:35.701Z,1.80
2019-02-12T10:19:35.689Z,2.30
2019-02-12T10:20:35.678Z,2.60
2019-02-12T10:21:35.665Z,2.10
2019-02-12T10:22:35.659Z,2.20
2019-02-12T10:23:35.645Z,2.30
2019-02-12T10:24:35.631Z,2.00
2019-02-12T10:25:35.621Z,2.70
2019-02-12T10:26:35.610Z,2.20
2019-02-12T10:27:35.599Z,2.00
2019-02-12T10:28:35.591Z,2.20
2019-02-12T10:29:35.576Z,2.10
2019-02-12T10:30:35.572Z,2.10
2019-02-12T10:31:35.554Z,1.80
2019-02-12T10:32:35.549Z,2.10
2019-02-12T10:33:35.549Z,2.00
2019-02-12T10:34:35.520Z,2.30
2019-02-12T10:35:35.518Z,1.60
2019-02-12T10:36:35.499Z,2.00
2019-02-12T10:37:35.504Z,2.20
2019-02-12T10:38:35.475Z,1.90
2019-02-12T10:39:35.467Z,1.40
2019-02-12T10:40:35.452Z,2.30
2019-02-12T10:41:35.443Z,1.70
2019-02-12T10:42:35.431Z,2.00
2019-02-12T10:43:35.422Z,1.90
2019-02-12T10:44:35.409Z,1.80
2019-02-12T10:45:35.398Z,2.20
2019-02-12T10:46:35.386Z,1.80
2019-02-12T10:47:35.377Z,2.10
2019-02-12T10:48:35.364Z,1.90
2019-02-12T10:49:35.352Z,2.00
2019-02-12T10:50:35.342Z,1.90
2019-02-12T10:51:35.333Z,1.90
2019-02-12T10:52:35.318Z,1.90
2019-02-12T10:53:35.307Z,2.30
2019-02-12T10:54:35.297Z,1.80
2019-02-12T10:55:35.286Z,2.00
2019-02-12T10:56:35.277Z,2.10
2019-02-12T10:57:35.265Z,1.80
2019-02-12T10:58:35.273Z,2.10
2019-02-12T10:59:35.242Z,1.70
2019-02-12T11:00:35.241Z,2.00
2019-02-12T11:01:35.222Z,1.80
2019-02-12T11:02:35.207Z,2.00
2019-02-12T11:03:35.200Z,1.70
2019-02-12T11:04:35.185Z,2.10
2019-02-12T11:05:35.173Z,2.30
2019-02-12T11:06:35.162Z,2.00
2019-02-12T11:07:35.153Z,1.90
2019-02-12T11:08:35.140Z,1.90
2019-02-12T11:09:35.130Z,2.10
2019-02-12T11:10:35.122Z,2.00
2019-02-12T11:11:35.109Z,2.00
2019-02-12T11:12:35.096Z,2.00
2019-02-12T11:13:35.089Z,2.20
2019-02-12T11:14:35.075Z,1.40
2019-02-12T11:15:35.061Z,2.00
2019-02-12T11:16:35.052Z,1.80
2019-02-12T11:17:35.040Z,2.10
2019-02-12T11:18:35.029Z,1.60
2019-02-12T11:19:35.021Z,1.70
2019-02-12T11:20:35.005Z,1.70
2019-02-12T11:21:35.009Z,1.50
2019-02-12T11:22:34.985Z,1.60
2019-02-12T11:23:34.972Z,1.70
2019-02-12T11:24:35.781Z,1.60
2019-02-12T11:25:34.950Z,1.60
2019-02-12T11:26:34.940Z,1.70
2019-02-12T11:27:34.929Z,1.90
2019-02-12T11:28:34.916Z,1.50
2019-02-12T11:29:34.909Z,1.80
2019-02-12T11:30:34.894Z,2.00
2019-02-12T11:31:34.885Z,1.50
2019-02-12T11:32:34.873Z,1.90
2019-02-12T11:33:34.865Z,1.70
2019-02-12T11:34:34.851Z,1.80
2019-02-12T11:35:34.839Z,2.00
2019-02-12T11:36:34.826Z,1.60
2019-02-12T11:37:34.816Z,2.00
2019-02-12T11:38:34.812Z,1.90
2019-02-12T11:39:34.794Z,2.20
2019-02-12T11:40:34.783Z,2.10
2019-02-12T11:41:36.127Z,1.80
2019-02-12T11:42:34.759Z,2.40
2019-02-12T11:43:34.749Z,2.50
2019-02-12T11:44:34.738Z,1.90
2019-02-12T11:45:34.726Z,1.70
2019-02-12T11:46:34.716Z,1.50
2019-02-12T11:47:34.705Z,1.60
2019-02-12T11:48:34.698Z,1.80
2019-02-12T11:49:34.683Z,1.60
2019-02-12T11:50:34.670Z,1.50
2019-02-12T11:51:34.662Z,2.00
2019-02-12T11:52:34.648Z,1.70
2019-02-12T11:53:34.640Z,1.80
2019-02-12T11:54:34.627Z,1.70
2019-02-12T11:55:34.615Z,1.70
2019-02-12T11:56:34.604Z,2.00
2019-02-12T11:57:34.597Z,1.90
2019-02-12T11:58:34.585Z,2.00
2019-02-12T11:59:34.569Z,1.90
2019-02-12T12:00:34.560Z,1.90
2019-02-12T12:01:34.553Z,1.90
2019-02-12T12:02:41.589Z,1.80
2019-02-12T12:03:35.524Z,2.70
2019-02-12T12:04:34.515Z,2.20
2019-02-12T12:05:34.507Z,2.00
2019-02-12T12:06:34.491Z,2.10
2019-02-12T12:07:34.481Z,2.00
2019-02-12T12:08:34.471Z,2.10
2019-02-12T12:09:34.459Z,2.20
2019-02-12T12:10:34.449Z,1.90
2019-02-12T12:11:34.437Z,2.00
2019-02-12T12:12:34.428Z,2.20
2019-02-12T12:13:34.414Z,2.00
2019-02-12T12:14:34.406Z,2.10
2019-02-12T12:15:34.391Z,1.90
2019-02-12T12:16:34.382Z,2.10
2019-02-12T12:17:34.376Z,2.40
2019-02-12T12:18:34.360Z,2.50
2019-02-12T12:19:34.349Z,2.10
2019-02-12T12:20:34.337Z,2.30
2019-02-12T12:21:34.327Z,2.20
2019-02-12T12:22:34.319Z,1.90
2019-02-12T12:23:34.304Z,2.10
2019-02-12T12:24:34.292Z,2.00
2019-02-12T12:25:34.283Z,2.00
2019-02-12T12:26:34.270Z,1.80
2019-02-12T12:27:34.260Z,1.60
2019-02-12T12:28:34.246Z,2.00
2019-02-12T12:29:34.237Z,1.90
2019-02-12T12:30:34.224Z,1.70
2019-02-12T12:31:34.233Z,2.00
2019-02-12T12:32:34.203Z,2.00
2019-02-12T12:33:34.190Z,1.70
2019-02-12T12:34:34.180Z,1.90
2019-02-12T12:35:34.174Z,1.70
2019-02-12T12:36:34.158Z,1.90
2019-02-12T12:37:34.147Z,1.70
2019-02-12T12:38:34.137Z,2.00
2019-02-12T12:39:34.124Z,2.40
2019-02-12T12:40:34.115Z,2.10
2019-02-12T12:41:34.102Z,1.80
2019-02-12T12:42:34.091Z,1.80
2019-02-12T12:43:34.081Z,1.60
2019-02-12T12:44:34.070Z,2.00
2019-02-12T12:45:34.059Z,2.20
2019-02-12T12:46:34.054Z,2.00
2019-02-12T12:47:34.039Z,2.40
2019-02-12T12:48:34.025Z,2.00
2019-02-12T12:49:34.022Z,1.80
2019-02-12T12:50:34.006Z,1.80
2019-02-12T12:51:33.992Z,2.40
2019-02-12T12:52:33.980Z,2.20
2019-02-12T12:53:33.970Z,2.40
2019-02-12T12:54:33.958Z,2.10
2019-02-12T12:55:33.952Z,2.00
2019-02-12T12:56:33.937Z,1.60
2019-02-12T12:57:41.339Z,1.50
2019-02-12T12:58:34.913Z,2.20
2019-02-12T12:59:33.916Z,1.70
2019-02-12T13:00:33.891Z,1.90
2019-02-12T13:01:33.885Z,1.70
2019-02-12T13:02:33.873Z,1.60
2019-02-12T13:03:33.857Z,1.80
2019-02-12T13:04:33.854Z,2.30
2019-02-12T13:05:33.835Z,1.60
2019-02-12T13:06:33.824Z,2.00
2019-02-12T13:07:33.815Z,2.20
2019-02-12T13:08:33.810Z,1.90
2019-02-12T13:09:33.792Z,2.10
2019-02-12T13:10:33.780Z,2.10
2019-02-12T13:11:33.769Z,2.00
2019-02-12T13:12:33.757Z,2.00
2019-02-12T13:13:33.746Z,1.90
2019-02-12T13:14:33.736Z,2.20
2019-02-12T13:15:33.724Z,2.00
2019-02-12T13:16:33.716Z,2.00
2019-02-12T13:17:33.703Z,2.20
2019-02-12T13:18:33.699Z,1.50